sensor_id;sensor_type;location;lat;lon;timestamp;pressure;altitude;pressure_sealevel;temperature;humidity
76352;BME280;65179;47.786;19.138;2023-03-31T00:02:08;99939.84;;;9.52;88.94
76352;BME280;65179;47.786;19.138;2023-03-31T00:04:41;99936.91;;;9.53;89.10
76352;BME280;65179;47.786;19.138;2023-03-31T00:07:12;99936.69;;;9.55;89.35
76352;BME280;65179;47.786;19.138;2023-03-31T00:09:38;99925.37;;;9.58;89.99
76352;BME280;65179;47.786;19.138;2023-03-31T00:12:06;99908.53;;;9.56;90.42
76352;BME280;65179;47.786;19.138;2023-03-31T00:14:31;99904.91;;;9.62;90.33
76352;BME280;65179;47.786;19.138;2023-03-31T00:16:57;99914.94;;;9.61;90.47
76352;BME280;65179;47.786;19.138;2023-03-31T00:19:22;99895.97;;;9.61;90.86
76352;BME280;65179;47.786;19.138;2023-03-31T00:21:49;99898.44;;;9.63;90.76
76352;BME280;65179;47.786;19.138;2023-03-31T00:24:17;99899.28;;;9.63;90.88
76352;BME280;65179;47.786;19.138;2023-03-31T00:26:43;99899.28;;;9.63;91.23
76352;BME280;65179;47.786;19.138;2023-03-31T00:29:11;99897.97;;;9.66;91.29
76352;BME280;65179;47.786;19.138;2023-03-31T00:31:37;99890.47;;;9.68;91.22
76352;BME280;65179;47.786;19.138;2023-03-31T00:34:03;99887.28;;;9.71;91.52
76352;BME280;65179;47.786;19.138;2023-03-31T00:36:30;99891.66;;;9.72;91.48
76352;BME280;65179;47.786;19.138;2023-03-31T00:39:00;99887.53;;;9.69;91.52
76352;BME280;65179;47.786;19.138;2023-03-31T00:41:36;99891.19;;;9.75;91.40
76352;BME280;65179;47.786;19.138;2023-03-31T00:44:19;99894.16;;;9.73;91.60
76352;BME280;65179;47.786;19.138;2023-03-31T00:47:04;99885.41;;;9.71;92.15
76352;BME280;65179;47.786;19.138;2023-03-31T00:49:35;99881.25;;;9.69;91.95
76352;BME280;65179;47.786;19.138;2023-03-31T00:52:13;99881.72;;;9.48;91.12
76352;BME280;65179;47.786;19.138;2023-03-31T00:54:41;99872.41;;;9.44;89.92
76352;BME280;65179;47.786;19.138;2023-03-31T00:57:08;99870.56;;;9.20;89.40
76352;BME280;65179;47.786;19.138;2023-03-31T00:59:40;99883.69;;;9.16;89.47
76352;BME280;65179;47.786;19.138;2023-03-31T01:02:07;99892.78;;;9.03;89.09
76352;BME280;65179;47.786;19.138;2023-03-31T01:04:38;99894.06;;;9.01;89.25
76352;BME280;65179;47.786;19.138;2023-03-31T01:07:25;99893.25;;;9.00;89.22
76352;BME280;65179;47.786;19.138;2023-03-31T01:09:57;99889.16;;;8.91;89.40
76352;BME280;65179;47.786;19.138;2023-03-31T01:12:25;99885.38;;;8.92;89.25
76352;BME280;65179;47.786;19.138;2023-03-31T01:14:51;99878.31;;;8.91;89.13
76352;BME280;65179;47.786;19.138;2023-03-31T01:17:18;99882.72;;;8.86;88.91
76352;BME280;65179;47.786;19.138;2023-03-31T01:22:58;99879.66;;;8.82;88.83
76352;BME280;65179;47.786;19.138;2023-03-31T01:28:42;99874.09;;;8.71;89.17
76352;BME280;65179;47.786;19.138;2023-03-31T01:47:58;99884.38;;;8.62;89.52
76352;BME280;65179;47.786;19.138;2023-03-31T01:50:30;99871.97;;;8.55;89.23
76352;BME280;65179;47.786;19.138;2023-03-31T01:53:20;99868.59;;;8.59;89.00
76352;BME280;65179;47.786;19.138;2023-03-31T02:01:19;99865.72;;;8.54;88.76
76352;BME280;65179;47.786;19.138;2023-03-31T02:03:52;99858.72;;;8.47;89.05
76352;BME280;65179;47.786;19.138;2023-03-31T02:06:23;99857.91;;;8.39;89.17
76352;BME280;65179;47.786;19.138;2023-03-31T02:08:54;99859.13;;;8.44;90.61
76352;BME280;65179;47.786;19.138;2023-03-31T02:11:22;99865.38;;;8.44;90.65
76352;BME280;65179;47.786;19.138;2023-03-31T02:13:52;99865.81;;;8.41;91.42
76352;BME280;65179;47.786;19.138;2023-03-31T02:16:22;99856.44;;;8.44;91.33
76352;BME280;65179;47.786;19.138;2023-03-31T02:18:52;99854.16;;;8.40;91.58
76352;BME280;65179;47.786;19.138;2023-03-31T02:21:19;99858.25;;;8.50;92.76
76352;BME280;65179;47.786;19.138;2023-03-31T02:23:49;99866.31;;;8.56;92.27
76352;BME280;65179;47.786;19.138;2023-03-31T02:26:20;99858.81;;;8.58;93.21
76352;BME280;65179;47.786;19.138;2023-03-31T02:28:47;99850.03;;;8.63;92.71
76352;BME280;65179;47.786;19.138;2023-03-31T02:31:27;99852.06;;;8.67;93.40
76352;BME280;65179;47.786;19.138;2023-03-31T02:33:54;99846.06;;;8.65;93.05
76352;BME280;65179;47.786;19.138;2023-03-31T02:36:20;99850.22;;;8.68;93.40
76352;BME280;65179;47.786;19.138;2023-03-31T02:38:52;99842.91;;;8.68;93.14
76352;BME280;65179;47.786;19.138;2023-03-31T02:41:20;99840.22;;;8.68;93.26
76352;BME280;65179;47.786;19.138;2023-03-31T02:43:45;99843.97;;;8.67;93.12
76352;BME280;65179;47.786;19.138;2023-03-31T02:46:10;99833.97;;;8.68;92.91
76352;BME280;65179;47.786;19.138;2023-03-31T02:48:39;99837.50;;;8.68;92.71
76352;BME280;65179;47.786;19.138;2023-03-31T02:51:26;99842.50;;;8.65;92.75
76352;BME280;65179;47.786;19.138;2023-03-31T03:08:09;99829.62;;;8.60;92.90
76352;BME280;65179;47.786;19.138;2023-03-31T03:13:22;99835.28;;;8.59;93.12
76352;BME280;65179;47.786;19.138;2023-03-31T03:16:00;99840.31;;;8.55;92.67
76352;BME280;65179;47.786;19.138;2023-03-31T03:18:28;99841.59;;;8.53;92.64
76352;BME280;65179;47.786;19.138;2023-03-31T03:20:53;99852.59;;;8.51;92.71
76352;BME280;65179;47.786;19.138;2023-03-31T03:23:19;99862.03;;;8.49;92.72
76352;BME280;65179;47.786;19.138;2023-03-31T03:25:44;99856.81;;;8.47;92.59
76352;BME280;65179;47.786;19.138;2023-03-31T03:28:11;99855.38;;;8.45;92.80
76352;BME280;65179;47.786;19.138;2023-03-31T03:30:36;99853.72;;;8.44;92.53
76352;BME280;65179;47.786;19.138;2023-03-31T03:33:02;99845.84;;;8.42;92.64
76352;BME280;65179;47.786;19.138;2023-03-31T03:35:30;99851.66;;;8.39;92.55
76352;BME280;65179;47.786;19.138;2023-03-31T03:37:56;99860.41;;;8.41;92.43
76352;BME280;65179;47.786;19.138;2023-03-31T03:40:21;99854.16;;;8.40;92.31
76352;BME280;65179;47.786;19.138;2023-03-31T03:42:46;99855.22;;;8.39;92.37
76352;BME280;65179;47.786;19.138;2023-03-31T03:45:12;99850.03;;;8.38;92.24
76352;BME280;65179;47.786;19.138;2023-03-31T03:47:38;99855.63;;;8.36;92.16
76352;BME280;65179;47.786;19.138;2023-03-31T03:50:03;99857.97;;;8.33;92.00
76352;BME280;65179;47.786;19.138;2023-03-31T03:52:29;99862.56;;;8.26;91.88
76352;BME280;65179;47.786;19.138;2023-03-31T03:54:54;99868.00;;;8.19;91.71
76352;BME280;65179;47.786;19.138;2023-03-31T03:57:20;99873.03;;;8.16;91.86
76352;BME280;65179;47.786;19.138;2023-03-31T03:59:46;99875.12;;;8.14;91.94
76352;BME280;65179;47.786;19.138;2023-03-31T04:02:11;99870.56;;;8.08;91.86
76352;BME280;65179;47.786;19.138;2023-03-31T04:04:37;99870.16;;;8.04;91.75
76352;BME280;65179;47.786;19.138;2023-03-31T04:07:02;99865.81;;;8.03;91.67
76352;BME280;65179;47.786;19.138;2023-03-31T04:09:27;99863.34;;;7.95;91.23
76352;BME280;65179;47.786;19.138;2023-03-31T04:11:53;99864.00;;;7.91;91.12
76352;BME280;65179;47.786;19.138;2023-03-31T04:14:18;99863.81;;;7.86;90.70
76352;BME280;65179;47.786;19.138;2023-03-31T04:16:44;99854.69;;;7.80;90.98
76352;BME280;65179;47.786;19.138;2023-03-31T04:19:12;99851.81;;;7.75;90.77
76352;BME280;65179;47.786;19.138;2023-03-31T04:21:39;99854.09;;;7.72;90.45
76352;BME280;65179;47.786;19.138;2023-03-31T04:24:12;99857.03;;;7.70;90.24
76352;BME280;65179;47.786;19.138;2023-03-31T04:26:40;99854.34;;;7.63;90.29
76352;BME280;65179;47.786;19.138;2023-03-31T04:29:13;99843.78;;;7.62;90.15
76352;BME280;65179;47.786;19.138;2023-03-31T04:31:40;99851.25;;;7.60;89.80
76352;BME280;65179;47.786;19.138;2023-03-31T04:34:11;99853.75;;;7.55;89.88
76352;BME280;65179;47.786;19.138;2023-03-31T04:36:44;99849.81;;;7.57;89.67
76352;BME280;65179;47.786;19.138;2023-03-31T04:39:17;99855.84;;;7.53;90.00
76352;BME280;65179;47.786;19.138;2023-03-31T04:41:51;99846.72;;;7.47;90.26
76352;BME280;65179;47.786;19.138;2023-03-31T04:44:17;99853.34;;;7.51;90.93
76352;BME280;65179;47.786;19.138;2023-03-31T04:46:42;99850.84;;;7.50;90.91
76352;BME280;65179;47.786;19.138;2023-03-31T04:49:08;99846.28;;;7.50;90.80
76352;BME280;65179;47.786;19.138;2023-03-31T04:51:33;99841.75;;;7.44;90.95
76352;BME280;65179;47.786;19.138;2023-03-31T04:53:58;99848.37;;;7.48;91.07
76352;BME280;65179;47.786;19.138;2023-03-31T04:56:24;99840.28;;;7.48;90.61
76352;BME280;65179;47.786;19.138;2023-03-31T04:58:50;99849.03;;;7.44;90.91
76352;BME280;65179;47.786;19.138;2023-03-31T05:01:16;99848.16;;;7.50;90.74
76352;BME280;65179;47.786;19.138;2023-03-31T05:03:43;99839.84;;;7.51;90.44
76352;BME280;65179;47.786;19.138;2023-03-31T05:06:08;99845.47;;;7.50;90.37
76352;BME280;65179;47.786;19.138;2023-03-31T05:08:34;99849.19;;;7.55;91.02
76352;BME280;65179;47.786;19.138;2023-03-31T05:11:01;99848.56;;;7.60;90.62
76352;BME280;65179;47.786;19.138;2023-03-31T05:13:27;99841.69;;;7.57;90.80
76352;BME280;65179;47.786;19.138;2023-03-31T05:15:52;99839.16;;;7.62;91.02
76352;BME280;65179;47.786;19.138;2023-03-31T05:18:18;99844.34;;;7.71;91.08
76352;BME280;65179;47.786;19.138;2023-03-31T05:20:43;99838.28;;;7.82;91.15
76352;BME280;65179;47.786;19.138;2023-03-31T05:23:11;99831.53;;;7.91;90.78
76352;BME280;65179;47.786;19.138;2023-03-31T05:25:37;99829.88;;;7.96;90.46
76352;BME280;65179;47.786;19.138;2023-03-31T05:28:02;99842.91;;;8.06;90.17
76352;BME280;65179;47.786;19.138;2023-03-31T05:30:28;99836.78;;;8.17;90.29
76352;BME280;65179;47.786;19.138;2023-03-31T05:32:54;99844.25;;;8.28;90.28
76352;BME280;65179;47.786;19.138;2023-03-31T05:35:20;99838.41;;;8.31;90.01
76352;BME280;65179;47.786;19.138;2023-03-31T05:37:45;99835.06;;;8.35;89.97
76352;BME280;65179;47.786;19.138;2023-03-31T05:40:11;99836.22;;;8.46;89.85
76352;BME280;65179;47.786;19.138;2023-03-31T05:42:37;99831.75;;;8.58;89.79
76352;BME280;65179;47.786;19.138;2023-03-31T05:45:03;99835.84;;;8.67;89.44
76352;BME280;65179;47.786;19.138;2023-03-31T05:47:29;99840.53;;;8.78;89.32
76352;BME280;65179;47.786;19.138;2023-03-31T05:49:55;99841.31;;;8.85;89.75
76352;BME280;65179;47.786;19.138;2023-03-31T05:52:20;99839.50;;;8.97;89.00
76352;BME280;65179;47.786;19.138;2023-03-31T05:54:46;99836.69;;;9.10;88.80
76352;BME280;65179;47.786;19.138;2023-03-31T05:57:11;99836.19;;;9.20;88.26
76352;BME280;65179;47.786;19.138;2023-03-31T05:59:37;99837.31;;;9.31;87.95
76352;BME280;65179;47.786;19.138;2023-03-31T06:02:04;99829.47;;;9.41;87.88
76352;BME280;65179;47.786;19.138;2023-03-31T06:04:30;99834.81;;;9.47;87.96
76352;BME280;65179;47.786;19.138;2023-03-31T06:06:57;99822.25;;;9.53;87.52
76352;BME280;65179;47.786;19.138;2023-03-31T06:09:23;99827.97;;;9.63;86.84
76352;BME280;65179;47.786;19.138;2023-03-31T06:11:49;99828.72;;;9.70;86.08
76352;BME280;65179;47.786;19.138;2023-03-31T06:14:14;99824.59;;;9.79;86.05
76352;BME280;65179;47.786;19.138;2023-03-31T06:16:40;99822.66;;;9.86;85.52
76352;BME280;65179;47.786;19.138;2023-03-31T06:19:05;99825.78;;;10.01;84.91
76352;BME280;65179;47.786;19.138;2023-03-31T06:21:31;99824.41;;;10.10;84.76
76352;BME280;65179;47.786;19.138;2023-03-31T06:23:57;99818.22;;;10.21;84.71
76352;BME280;65179;47.786;19.138;2023-03-31T06:26:25;99829.31;;;10.31;84.25
76352;BME280;65179;47.786;19.138;2023-03-31T06:28:50;99827.94;;;10.40;83.79
76352;BME280;65179;47.786;19.138;2023-03-31T06:31:18;99831.97;;;10.49;83.27
76352;BME280;65179;47.786;19.138;2023-03-31T06:33:44;99826.69;;;10.54;82.94
76352;BME280;65179;47.786;19.138;2023-03-31T06:36:11;99822.53;;;10.63;82.44
76352;BME280;65179;47.786;19.138;2023-03-31T06:38:38;99825.53;;;10.74;82.82
76352;BME280;65179;47.786;19.138;2023-03-31T06:41:05;99833.31;;;10.82;82.38
76352;BME280;65179;47.786;19.138;2023-03-31T06:43:31;99822.00;;;10.85;82.14
76352;BME280;65179;47.786;19.138;2023-03-31T06:45:56;99821.75;;;10.98;81.44
76352;BME280;65179;47.786;19.138;2023-03-31T06:48:23;99813.25;;;11.06;81.44
76352;BME280;65179;47.786;19.138;2023-03-31T06:50:49;99812.03;;;11.25;80.84
76352;BME280;65179;47.786;19.138;2023-03-31T06:53:15;99806.34;;;11.26;80.11
76352;BME280;65179;47.786;19.138;2023-03-31T06:55:40;99814.75;;;11.36;78.49
76352;BME280;65179;47.786;19.138;2023-03-31T06:58:06;99815.91;;;11.40;79.69
76352;BME280;65179;47.786;19.138;2023-03-31T07:00:32;99812.50;;;11.45;77.69
76352;BME280;65179;47.786;19.138;2023-03-31T07:02:58;99805.38;;;11.44;79.24
76352;BME280;65179;47.786;19.138;2023-03-31T07:05:24;99815.91;;;11.40;79.16
76352;BME280;65179;47.786;19.138;2023-03-31T07:07:53;99815.56;;;11.37;79.07
76352;BME280;65179;47.786;19.138;2023-03-31T07:10:19;99815.09;;;11.40;78.04
76352;BME280;65179;47.786;19.138;2023-03-31T07:12:44;99815.78;;;11.47;78.52
76352;BME280;65179;47.786;19.138;2023-03-31T07:15:10;99805.63;;;11.54;78.63
76352;BME280;65179;47.786;19.138;2023-03-31T07:17:35;99800.50;;;11.58;77.94
76352;BME280;65179;47.786;19.138;2023-03-31T07:20:14;99804.66;;;11.60;77.59
76352;BME280;65179;47.786;19.138;2023-03-31T07:22:44;99806.53;;;11.71;77.69
76352;BME280;65179;47.786;19.138;2023-03-31T07:25:12;99808.88;;;11.79;77.42
76352;BME280;65179;47.786;19.138;2023-03-31T07:27:38;99803.84;;;11.99;76.73
76352;BME280;65179;47.786;19.138;2023-03-31T07:30:06;99792.12;;;12.15;76.60
76352;BME280;65179;47.786;19.138;2023-03-31T07:32:33;99786.91;;;12.26;74.42
76352;BME280;65179;47.786;19.138;2023-03-31T07:34:58;99787.16;;;12.41;74.65
76352;BME280;65179;47.786;19.138;2023-03-31T07:37:24;99785.06;;;12.48;72.91
76352;BME280;65179;47.786;19.138;2023-03-31T07:39:50;99778.66;;;12.54;73.83
76352;BME280;65179;47.786;19.138;2023-03-31T07:42:16;99783.28;;;12.53;74.75
76352;BME280;65179;47.786;19.138;2023-03-31T07:44:42;99777.84;;;12.53;73.14
76352;BME280;65179;47.786;19.138;2023-03-31T07:47:07;99779.66;;;12.64;73.24
76352;BME280;65179;47.786;19.138;2023-03-31T07:49:33;99786.09;;;12.75;73.79
76352;BME280;65179;47.786;19.138;2023-03-31T07:51:59;99774.66;;;12.94;73.46
76352;BME280;65179;47.786;19.138;2023-03-31T07:54:25;99765.59;;;13.06;71.63
76352;BME280;65179;47.786;19.138;2023-03-31T07:56:51;99774.78;;;13.21;72.19
76352;BME280;65179;47.786;19.138;2023-03-31T07:59:17;99766.25;;;13.34;71.20
76352;BME280;65179;47.786;19.138;2023-03-31T08:01:42;99760.38;;;13.42;70.74
76352;BME280;65179;47.786;19.138;2023-03-31T08:04:09;99761.12;;;13.59;70.85
76352;BME280;65179;47.786;19.138;2023-03-31T08:06:34;99760.56;;;13.57;69.83
76352;BME280;65179;47.786;19.138;2023-03-31T08:09:00;99749.28;;;13.76;68.73
76352;BME280;65179;47.786;19.138;2023-03-31T08:11:25;99752.72;;;13.93;68.11
76352;BME280;65179;47.786;19.138;2023-03-31T08:13:54;99744.25;;;13.89;68.30
76352;BME280;65179;47.786;19.138;2023-03-31T08:16:19;99731.38;;;13.85;68.49
76352;BME280;65179;47.786;19.138;2023-03-31T08:18:45;99735.38;;;14.04;67.28
76352;BME280;65179;47.786;19.138;2023-03-31T08:21:10;99733.78;;;14.08;66.28
76352;BME280;65179;47.786;19.138;2023-03-31T08:23:36;99726.13;;;14.05;67.42
76352;BME280;65179;47.786;19.138;2023-03-31T08:26:16;99724.59;;;14.19;66.42
76352;BME280;65179;47.786;19.138;2023-03-31T08:28:46;99723.75;;;14.40;66.54
76352;BME280;65179;47.786;19.138;2023-03-31T08:31:15;99713.16;;;14.54;65.42
76352;BME280;65179;47.786;19.138;2023-03-31T08:33:43;99712.94;;;14.60;64.61
76352;BME280;65179;47.786;19.138;2023-03-31T08:36:09;99706.75;;;14.70;63.46
76352;BME280;65179;47.786;19.138;2023-03-31T08:38:40;99702.66;;;14.77;63.51
76352;BME280;65179;47.786;19.138;2023-03-31T08:41:13;99698.94;;;14.93;63.93
76352;BME280;65179;47.786;19.138;2023-03-31T08:43:45;99691.03;;;14.97;62.88
76352;BME280;65179;47.786;19.138;2023-03-31T08:46:14;99689.63;;;14.89;60.35
76352;BME280;65179;47.786;19.138;2023-03-31T08:48:45;99684.75;;;14.96;61.25
76352;BME280;65179;47.786;19.138;2023-03-31T08:51:23;99679.97;;;15.34;60.61
76352;BME280;65179;47.786;19.138;2023-03-31T08:54:05;99676.81;;;15.62;59.93
76352;BME280;65179;47.786;19.138;2023-03-31T08:56:38;99666.16;;;15.65;57.96
76352;BME280;65179;47.786;19.138;2023-03-31T08:59:22;99671.94;;;15.74;58.50
76352;BME280;65179;47.786;19.138;2023-03-31T09:01:59;99666.47;;;15.99;56.81
76352;BME280;65179;47.786;19.138;2023-03-31T09:04:39;99664.28;;;16.31;57.14
76352;BME280;65179;47.786;19.138;2023-03-31T09:07:34;99661.00;;;16.29;55.79
76352;BME280;65179;47.786;19.138;2023-03-31T09:10:24;99650.81;;;16.70;55.28
76352;BME280;65179;47.786;19.138;2023-03-31T09:13:35;99645.63;;;16.48;53.93
76352;BME280;65179;47.786;19.138;2023-03-31T09:16:14;99647.78;;;16.82;55.94
76352;BME280;65179;47.786;19.138;2023-03-31T09:18:40;99647.12;;;17.15;54.74
76352;BME280;65179;47.786;19.138;2023-03-31T09:21:36;99637.19;;;17.24;54.82
76352;BME280;65179;47.786;19.138;2023-03-31T09:26:48;99630.78;;;16.85;55.80
76352;BME280;65179;47.786;19.138;2023-03-31T09:29:27;99629.78;;;17.24;55.60
76352;BME280;65179;47.786;19.138;2023-03-31T09:31:59;99617.50;;;17.17;55.96
76352;BME280;65179;47.786;19.138;2023-03-31T09:34:31;99619.16;;;17.13;56.39
76352;BME280;65179;47.786;19.138;2023-03-31T09:36:57;99612.13;;;16.87;56.20
76352;BME280;65179;47.786;19.138;2023-03-31T09:39:23;99615.47;;;16.63;56.50
76352;BME280;65179;47.786;19.138;2023-03-31T09:41:50;99607.78;;;16.76;56.98
76352;BME280;65179;47.786;19.138;2023-03-31T09:44:21;99607.25;;;16.74;55.78
76352;BME280;65179;47.786;19.138;2023-03-31T09:46:48;99600.38;;;16.66;54.59
76352;BME280;65179;47.786;19.138;2023-03-31T09:49:17;99594.12;;;16.45;56.64
76352;BME280;65179;47.786;19.138;2023-03-31T09:51:47;99585.62;;;16.47;56.71
76352;BME280;65179;47.786;19.138;2023-03-31T09:54:19;99584.00;;;16.36;56.43
76352;BME280;65179;47.786;19.138;2023-03-31T09:56:49;99576.88;;;16.35;57.00
76352;BME280;65179;47.786;19.138;2023-03-31T09:59:31;99586.72;;;16.31;57.37
76352;BME280;65179;47.786;19.138;2023-03-31T10:01:59;99576.06;;;16.34;57.61
76352;BME280;65179;47.786;19.138;2023-03-31T10:04:29;99572.50;;;16.39;55.82
76352;BME280;65179;47.786;19.138;2023-03-31T10:06:55;99569.88;;;16.93;55.51
76352;BME280;65179;47.786;19.138;2023-03-31T10:09:26;99562.19;;;16.90;56.97
76352;BME280;65179;47.786;19.138;2023-03-31T10:12:08;99556.97;;;17.37;55.38
76352;BME280;65179;47.786;19.138;2023-03-31T10:14:43;99552.28;;;17.42;55.47
76352;BME280;65179;47.786;19.138;2023-03-31T10:17:17;99552.09;;;17.29;54.62
76352;BME280;65179;47.786;19.138;2023-03-31T10:20:16;99548.34;;;17.15;55.36
76352;BME280;65179;47.786;19.138;2023-03-31T10:22:44;99537.72;;;16.98;55.46
76352;BME280;65179;47.786;19.138;2023-03-31T10:25:16;99534.50;;;16.86;55.52
76352;BME280;65179;47.786;19.138;2023-03-31T10:27:44;99535.87;;;16.84;56.28
76352;BME280;65179;47.786;19.138;2023-03-31T10:30:17;99531.00;;;16.76;56.03
76352;BME280;65179;47.786;19.138;2023-03-31T10:32:45;99518.91;;;16.77;55.78
76352;BME280;65179;47.786;19.138;2023-03-31T10:37:37;99511.28;;;16.68;55.60
76352;BME280;65179;47.786;19.138;2023-03-31T10:40:13;99506.59;;;16.74;56.15
76352;BME280;65179;47.786;19.138;2023-03-31T10:42:39;99512.94;;;16.70;56.34
76352;BME280;65179;47.786;19.138;2023-03-31T10:47:52;99513.00;;;16.54;55.92
76352;BME280;65179;47.786;19.138;2023-03-31T10:50:18;99499.31;;;16.54;57.24
76352;BME280;65179;47.786;19.138;2023-03-31T10:52:46;99507.22;;;16.61;56.35
76352;BME280;65179;47.786;19.138;2023-03-31T10:55:17;99502.41;;;17.30;55.49
76352;BME280;65179;47.786;19.138;2023-03-31T10:57:55;99495.09;;;17.21;55.12
76352;BME280;65179;47.786;19.138;2023-03-31T11:22:11;99455.25;;;17.62;52.33
76352;BME280;65179;47.786;19.138;2023-03-31T11:28:14;99446.63;;;17.40;52.23
76352;BME280;65179;47.786;19.138;2023-03-31T11:30:35;99446.19;;;17.28;52.54
76352;BME280;65179;47.786;19.138;2023-03-31T11:36:15;99423.53;;;17.12;51.22
76352;BME280;65179;47.786;19.138;2023-03-31T11:41:46;99421.13;;;17.01;50.29
76352;BME280;65179;47.786;19.138;2023-03-31T11:44:16;99400.91;;;16.92;50.98
76352;BME280;65179;47.786;19.138;2023-03-31T11:46:49;99408.34;;;16.91;50.78
76352;BME280;65179;47.786;19.138;2023-03-31T11:49:23;99406.97;;;16.89;48.72
76352;BME280;65179;47.786;19.138;2023-03-31T11:52:06;99388.81;;;16.98;46.41
76352;BME280;65179;47.786;19.138;2023-03-31T11:57:41;99377.91;;;17.21;45.72
76352;BME280;65179;47.786;19.138;2023-03-31T12:00:20;99380.22;;;17.38;45.35
76352;BME280;65179;47.786;19.138;2023-03-31T12:02:54;99369.69;;;17.50;45.58
76352;BME280;65179;47.786;19.138;2023-03-31T12:05:25;99372.53;;;17.69;46.26
76352;BME280;65179;47.786;19.138;2023-03-31T12:08:04;99362.84;;;17.76;47.68
76352;BME280;65179;47.786;19.138;2023-03-31T12:10:40;99365.41;;;17.91;48.43
76352;BME280;65179;47.786;19.138;2023-03-31T12:15:42;99368.44;;;18.13;47.04
76352;BME280;65179;47.786;19.138;2023-03-31T12:18:13;99348.16;;;18.28;47.55
76352;BME280;65179;47.786;19.138;2023-03-31T12:20:45;99347.50;;;18.17;46.79
76352;BME280;65179;47.786;19.138;2023-03-31T12:23:17;99344.09;;;18.26;46.80
76352;BME280;65179;47.786;19.138;2023-03-31T12:25:52;99346.47;;;18.32;47.10
76352;BME280;65179;47.786;19.138;2023-03-31T12:28:21;99346.75;;;18.31;47.45
76352;BME280;65179;47.786;19.138;2023-03-31T12:30:48;99350.16;;;18.46;47.86
76352;BME280;65179;47.786;19.138;2023-03-31T12:33:21;99342.88;;;18.55;47.53
76352;BME280;65179;47.786;19.138;2023-03-31T12:44:33;99313.44;;;18.74;46.26
76352;BME280;65179;47.786;19.138;2023-03-31T12:47:32;99295.59;;;19.04;46.58
76352;BME280;65179;47.786;19.138;2023-03-31T12:50:22;99303.69;;;19.14;46.92
76352;BME280;65179;47.786;19.138;2023-03-31T12:55:54;99300.41;;;19.72;45.30
76352;BME280;65179;47.786;19.138;2023-03-31T13:01:13;99266.69;;;20.02;44.00
76352;BME280;65179;47.786;19.138;2023-03-31T13:08:58;99257.97;;;19.45;43.95
76352;BME280;65179;47.786;19.138;2023-03-31T13:14:05;99252.88;;;19.52;44.33
76352;BME280;65179;47.786;19.138;2023-03-31T13:16:33;99245.94;;;19.41;44.79
76352;BME280;65179;47.786;19.138;2023-03-31T13:19:01;99238.31;;;19.06;45.66
76352;BME280;65179;47.786;19.138;2023-03-31T13:21:28;99234.31;;;18.85;45.81
76352;BME280;65179;47.786;19.138;2023-03-31T13:24:06;99238.25;;;18.47;46.90
76352;BME280;65179;47.786;19.138;2023-03-31T13:34:41;99203.38;;;18.24;48.90
76352;BME280;65179;47.786;19.138;2023-03-31T13:52:11;99162.84;;;18.15;51.52
76352;BME280;65179;47.786;19.138;2023-03-31T13:57:49;99163.47;;;18.12;50.59
76352;BME280;65179;47.786;19.138;2023-03-31T14:03:32;99153.00;;;17.96;50.99
76352;BME280;65179;47.786;19.138;2023-03-31T14:06:11;99153.38;;;17.89;50.98
76352;BME280;65179;47.786;19.138;2023-03-31T14:11:34;99130.06;;;17.68;49.52
76352;BME280;65179;47.786;19.138;2023-03-31T14:14:26;99139.78;;;17.61;49.38
76352;BME280;65179;47.786;19.138;2023-03-31T14:16:59;99142.94;;;17.54;49.45
76352;BME280;65179;47.786;19.138;2023-03-31T14:25:11;99147.09;;;17.28;52.79
76352;BME280;65179;47.786;19.138;2023-03-31T14:34:12;99141.31;;;16.82;55.08
76352;BME280;65179;47.786;19.138;2023-03-31T14:36:47;99148.66;;;16.24;58.38
76352;BME280;65179;47.786;19.138;2023-03-31T14:39:20;99124.56;;;16.26;55.16
76352;BME280;65179;47.786;19.138;2023-03-31T14:41:55;99098.56;;;16.24;54.41
76352;BME280;65179;47.786;19.138;2023-03-31T14:44:24;99092.66;;;16.40;54.22
76352;BME280;65179;47.786;19.138;2023-03-31T14:46:50;99091.66;;;16.60;54.19
76352;BME280;65179;47.786;19.138;2023-03-31T14:49:27;99091.78;;;16.74;55.12
76352;BME280;65179;47.786;19.138;2023-03-31T14:51:54;99079.97;;;16.97;55.69
76352;BME280;65179;47.786;19.138;2023-03-31T14:54:23;99074.25;;;17.17;54.63
76352;BME280;65179;47.786;19.138;2023-03-31T14:56:55;99069.06;;;17.34;54.49
76352;BME280;65179;47.786;19.138;2023-03-31T14:59:30;99058.53;;;17.41;53.86
76352;BME280;65179;47.786;19.138;2023-03-31T15:01:58;99057.81;;;17.54;53.52
76352;BME280;65179;47.786;19.138;2023-03-31T15:04:27;99062.31;;;17.64;54.28
76352;BME280;65179;47.786;19.138;2023-03-31T15:06:53;99049.94;;;17.66;53.30
76352;BME280;65179;47.786;19.138;2023-03-31T15:09:27;99045.41;;;17.75;53.19
76352;BME280;65179;47.786;19.138;2023-03-31T15:12:02;99047.69;;;17.68;51.75
76352;BME280;65179;47.786;19.138;2023-03-31T15:14:34;99049.34;;;17.69;53.85
76352;BME280;65179;47.786;19.138;2023-03-31T15:17:01;99045.47;;;17.70;53.58
76352;BME280;65179;47.786;19.138;2023-03-31T15:19:29;99026.56;;;17.69;54.65
76352;BME280;65179;47.786;19.138;2023-03-31T15:22:10;99027.16;;;17.66;53.48
76352;BME280;65179;47.786;19.138;2023-03-31T15:24:41;99019.22;;;17.64;53.49
76352;BME280;65179;47.786;19.138;2023-03-31T15:27:31;99017.16;;;17.56;53.83
76352;BME280;65179;47.786;19.138;2023-03-31T15:30:00;99012.78;;;17.55;52.96
76352;BME280;65179;47.786;19.138;2023-03-31T15:32:34;99013.28;;;17.57;51.90
76352;BME280;65179;47.786;19.138;2023-03-31T15:35:01;98997.44;;;17.54;51.82
76352;BME280;65179;47.786;19.138;2023-03-31T15:37:40;99003.13;;;17.58;52.46
76352;BME280;65179;47.786;19.138;2023-03-31T15:40:38;98994.59;;;17.59;52.45
76352;BME280;65179;47.786;19.138;2023-03-31T15:43:06;98986.22;;;17.51;52.29
76352;BME280;65179;47.786;19.138;2023-03-31T15:45:55;98980.25;;;17.43;52.36
76352;BME280;65179;47.786;19.138;2023-03-31T15:48:48;98973.53;;;17.36;50.96